sensor_id;sensor_type;location;lat;lon;timestamp;P1;durP1;ratioP1;P2;durP2;ratioP2
48813;SDS011;34634;44.108;3.074;2023-04-15T00:01:53;8.85;;;1.30;;
48813;SDS011;34634;44.108;3.074;2023-04-15T00:04:19;3.83;;;0.98;;
48813;SDS011;34634;44.108;3.074;2023-04-15T00:06:49;3.97;;;1.10;;
48813;SDS011;34634;44.108;3.074;2023-04-15T00:09:17;6.07;;;1.20;;
48813;SDS011;34634;44.108;3.074;2023-04-15T00:11:44;4.25;;;0.85;;
48813;SDS011;34634;44.108;3.074;2023-04-15T00:14:13;6.40;;;1.48;;
48813;SDS011;34634;44.108;3.074;2023-04-15T00:16:40;4.50;;;1.10;;
48813;SDS011;34634;44.108;3.074;2023-04-15T00:19:06;6.13;;;1.10;;
48813;SDS011;34634;44.108;3.074;2023-04-15T00:21:32;3.92;;;0.90;;
48813;SDS011;34634;44.108;3.074;2023-04-15T00:23:59;5.40;;;1.10;;
48813;SDS011;34634;44.108;3.074;2023-04-15T00:26:26;4.95;;;0.90;;
48813;SDS011;34634;44.108;3.074;2023-04-15T00:28:52;4.47;;;0.80;;
48813;SDS011;34634;44.108;3.074;2023-04-15T00:31:19;3.92;;;1.00;;
48813;SDS011;34634;44.108;3.074;2023-04-15T00:33:45;2.58;;;0.90;;
48813;SDS011;34634;44.108;3.074;2023-04-15T00:36:12;4.68;;;1.15;;
48813;SDS011;34634;44.108;3.074;2023-04-15T00:39:00;5.28;;;1.00;;
48813;SDS011;34634;44.108;3.074;2023-04-15T00:41:27;6.63;;;1.15;;
48813;SDS011;34634;44.108;3.074;2023-04-15T00:43:54;5.50;;;0.95;;
48813;SDS011;34634;44.108;3.074;2023-04-15T00:46:20;4.43;;;0.95;;
48813;SDS011;34634;44.108;3.074;2023-04-15T00:48:47;6.55;;;1.10;;
48813;SDS011;34634;44.108;3.074;2023-04-15T00:51:13;5.30;;;1.23;;
48813;SDS011;34634;44.108;3.074;2023-04-15T00:53:40;2.63;;;0.85;;
48813;SDS011;34634;44.108;3.074;2023-04-15T00:56:06;7.45;;;1.33;;
48813;SDS011;34634;44.108;3.074;2023-04-15T00:58:32;4.63;;;0.90;;
48813;SDS011;34634;44.108;3.074;2023-04-15T01:00:59;6.85;;;0.90;;
48813;SDS011;34634;44.108;3.074;2023-04-15T01:03:26;3.28;;;0.90;;
48813;SDS011;34634;44.108;3.074;2023-04-15T01:05:53;2.80;;;0.70;;
48813;SDS011;34634;44.108;3.074;2023-04-15T01:08:28;0.68;;;0.47;;
48813;SDS011;34634;44.108;3.074;2023-04-15T01:10:55;4.07;;;0.65;;
48813;SDS011;34634;44.108;3.074;2023-04-15T01:13:22;2.35;;;0.65;;
48813;SDS011;34634;44.108;3.074;2023-04-15T01:15:49;1.63;;;0.50;;
48813;SDS011;34634;44.108;3.074;2023-04-15T01:18:16;1.20;;;0.50;;
48813;SDS011;34634;44.108;3.074;2023-04-15T01:20:43;2.72;;;0.50;;
48813;SDS011;34634;44.108;3.074;2023-04-15T01:23:10;4.47;;;0.57;;
48813;SDS011;34634;44.108;3.074;2023-04-15T01:25:37;2.72;;;0.60;;
48813;SDS011;34634;44.108;3.074;2023-04-15T01:28:04;1.45;;;0.30;;
48813;SDS011;34634;44.108;3.074;2023-04-15T01:30:33;2.90;;;0.43;;
48813;SDS011;34634;44.108;3.074;2023-04-15T01:33:00;2.65;;;0.47;;
48813;SDS011;34634;44.108;3.074;2023-04-15T01:35:51;1.60;;;0.30;;
48813;SDS011;34634;44.108;3.074;2023-04-15T01:38:17;3.75;;;0.50;;
48813;SDS011;34634;44.108;3.074;2023-04-15T01:40:44;3.42;;;0.50;;
48813;SDS011;34634;44.108;3.074;2023-04-15T01:43:10;4.20;;;1.02;;
48813;SDS011;34634;44.108;3.074;2023-04-15T01:45:36;1.77;;;0.60;;
48813;SDS011;34634;44.108;3.074;2023-04-15T01:48:03;2.42;;;0.65;;
48813;SDS011;34634;44.108;3.074;2023-04-15T01:50:30;1.05;;;0.47;;
48813;SDS011;34634;44.108;3.074;2023-04-15T01:52:56;2.00;;;0.43;;
48813;SDS011;34634;44.108;3.074;2023-04-15T01:55:22;1.80;;;0.35;;
48813;SDS011;34634;44.108;3.074;2023-04-15T01:57:49;0.85;;;0.50;;
48813;SDS011;34634;44.108;3.074;2023-04-15T02:00:15;2.97;;;0.60;;
48813;SDS011;34634;44.108;3.074;2023-04-15T02:02:41;1.73;;;0.40;;
48813;SDS011;34634;44.108;3.074;2023-04-15T02:05:09;2.15;;;0.40;;
48813;SDS011;34634;44.108;3.074;2023-04-15T02:07:35;0.70;;;0.30;;
48813;SDS011;34634;44.108;3.074;2023-04-15T02:10:02;4.43;;;0.80;;
48813;SDS011;34634;44.108;3.074;2023-04-15T02:12:28;1.40;;;0.70;;
48813;SDS011;34634;44.108;3.074;2023-04-15T02:14:54;3.72;;;0.63;;
48813;SDS011;34634;44.108;3.074;2023-04-15T02:17:21;2.47;;;0.50;;
48813;SDS011;34634;44.108;3.074;2023-04-15T02:19:47;4.97;;;0.95;;
48813;SDS011;34634;44.108;3.074;2023-04-15T02:22:13;4.03;;;0.93;;
48813;SDS011;34634;44.108;3.074;2023-04-15T02:24:43;2.05;;;0.70;;
48813;SDS011;34634;44.108;3.074;2023-04-15T02:27:13;3.47;;;0.85;;
48813;SDS011;34634;44.108;3.074;2023-04-15T02:29:40;1.30;;;0.40;;
48813;SDS011;34634;44.108;3.074;2023-04-15T02:32:07;1.40;;;0.68;;
48813;SDS011;34634;44.108;3.074;2023-04-15T02:34:33;1.40;;;0.40;;
48813;SDS011;34634;44.108;3.074;2023-04-15T02:36:59;1.15;;;0.38;;
48813;SDS011;34634;44.108;3.074;2023-04-15T02:39:28;1.98;;;0.30;;
48813;SDS011;34634;44.108;3.074;2023-04-15T02:41:54;2.15;;;0.43;;
48813;SDS011;34634;44.108;3.074;2023-04-15T02:44:23;2.45;;;0.40;;
48813;SDS011;34634;44.108;3.074;2023-04-15T02:46:50;4.78;;;0.60;;
48813;SDS011;34634;44.108;3.074;2023-04-15T02:49:17;2.08;;;0.68;;
48813;SDS011;34634;44.108;3.074;2023-04-15T02:51:44;1.58;;;0.30;;
48813;SDS011;34634;44.108;3.074;2023-04-15T02:54:16;2.08;;;0.60;;
48813;SDS011;34634;44.108;3.074;2023-04-15T02:56:43;2.22;;;0.50;;
48813;SDS011;34634;44.108;3.074;2023-04-15T02:59:09;1.50;;;0.50;;
48813;SDS011;34634;44.108;3.074;2023-04-15T03:01:36;1.80;;;0.45;;
48813;SDS011;34634;44.108;3.074;2023-04-15T03:04:02;2.85;;;0.57;;
48813;SDS011;34634;44.108;3.074;2023-04-15T03:06:29;2.65;;;0.52;;
48813;SDS011;34634;44.108;3.074;2023-04-15T03:08:55;3.72;;;0.90;;
48813;SDS011;34634;44.108;3.074;2023-04-15T03:11:22;2.80;;;0.60;;
48813;SDS011;34634;44.108;3.074;2023-04-15T03:13:48;2.80;;;0.63;;
48813;SDS011;34634;44.108;3.074;2023-04-15T03:16:14;2.63;;;0.55;;
48813;SDS011;34634;44.108;3.074;2023-04-15T03:18:41;1.98;;;0.75;;
48813;SDS011;34634;44.108;3.074;2023-04-15T03:21:08;2.47;;;0.70;;
48813;SDS011;34634;44.108;3.074;2023-04-15T03:23:34;4.65;;;0.77;;
48813;SDS011;34634;44.108;3.074;2023-04-15T03:26:01;4.20;;;1.35;;
48813;SDS011;34634;44.108;3.074;2023-04-15T03:28:27;5.50;;;1.60;;
48813;SDS011;34634;44.108;3.074;2023-04-15T03:30:54;6.45;;;1.63;;
48813;SDS011;34634;44.108;3.074;2023-04-15T03:33:20;11.38;;;2.22;;
48813;SDS011;34634;44.108;3.074;2023-04-15T03:35:47;5.93;;;1.90;;
48813;SDS011;34634;44.108;3.074;2023-04-15T03:38:13;7.10;;;2.20;;
48813;SDS011;34634;44.108;3.074;2023-04-15T03:40:40;5.30;;;1.85;;
48813;SDS011;34634;44.108;3.074;2023-04-15T03:43:06;8.80;;;1.20;;
48813;SDS011;34634;44.108;3.074;2023-04-15T03:45:32;2.72;;;0.60;;
48813;SDS011;34634;44.108;3.074;2023-04-15T03:47:59;1.92;;;0.57;;
48813;SDS011;34634;44.108;3.074;2023-04-15T03:50:25;2.83;;;0.80;;
48813;SDS011;34634;44.108;3.074;2023-04-15T03:52:52;3.60;;;0.90;;
48813;SDS011;34634;44.108;3.074;2023-04-15T03:55:18;3.75;;;0.90;;
48813;SDS011;34634;44.108;3.074;2023-04-15T03:57:44;4.65;;;0.90;;
48813;SDS011;34634;44.108;3.074;2023-04-15T04:00:11;3.88;;;0.80;;
48813;SDS011;34634;44.108;3.074;2023-04-15T04:02:37;2.58;;;0.70;;
48813;SDS011;34634;44.108;3.074;2023-04-15T04:05:04;2.25;;;0.60;;
48813;SDS011;34634;44.108;3.074;2023-04-15T04:07:30;1.83;;;0.52;;
48813;SDS011;34634;44.108;3.074;2023-04-15T04:09:56;7.78;;;0.90;;
48813;SDS011;34634;44.108;3.074;2023-04-15T04:12:23;2.92;;;0.40;;
48813;SDS011;34634;44.108;3.074;2023-04-15T04:14:49;2.95;;;0.55;;
48813;SDS011;34634;44.108;3.074;2023-04-15T04:17:15;0.73;;;0.40;;
48813;SDS011;34634;44.108;3.074;2023-04-15T04:19:42;2.45;;;0.50;;
48813;SDS011;34634;44.108;3.074;2023-04-15T04:22:08;4.05;;;0.98;;
48813;SDS011;34634;44.108;3.074;2023-04-15T04:24:34;3.40;;;0.98;;
48813;SDS011;34634;44.108;3.074;2023-04-15T04:27:01;1.60;;;0.57;;
48813;SDS011;34634;44.108;3.074;2023-04-15T04:29:27;2.70;;;0.75;;
48813;SDS011;34634;44.108;3.074;2023-04-15T04:31:53;3.10;;;0.60;;
48813;SDS011;34634;44.108;3.074;2023-04-15T04:34:20;2.65;;;0.50;;
48813;SDS011;34634;44.108;3.074;2023-04-15T04:36:46;6.10;;;0.70;;
48813;SDS011;34634;44.108;3.074;2023-04-15T04:39:12;1.92;;;0.47;;
48813;SDS011;34634;44.108;3.074;2023-04-15T04:41:39;3.47;;;0.70;;
48813;SDS011;34634;44.108;3.074;2023-04-15T04:44:05;1.05;;;0.60;;
48813;SDS011;34634;44.108;3.074;2023-04-15T04:46:31;4.30;;;0.60;;
48813;SDS011;34634;44.108;3.074;2023-04-15T04:49:20;2.03;;;0.50;;
48813;SDS011;34634;44.108;3.074;2023-04-15T04:51:47;2.17;;;0.52;;
48813;SDS011;34634;44.108;3.074;2023-04-15T04:54:13;2.83;;;0.70;;
48813;SDS011;34634;44.108;3.074;2023-04-15T04:56:40;3.13;;;0.68;;
48813;SDS011;34634;44.108;3.074;2023-04-15T04:59:06;2.58;;;0.77;;
48813;SDS011;34634;44.108;3.074;2023-04-15T05:01:33;1.75;;;0.50;;
48813;SDS011;34634;44.108;3.074;2023-04-15T05:04:00;3.45;;;0.60;;
48813;SDS011;34634;44.108;3.074;2023-04-15T05:06:26;2.10;;;0.47;;
48813;SDS011;34634;44.108;3.074;2023-04-15T05:08:54;1.80;;;0.50;;
48813;SDS011;34634;44.108;3.074;2023-04-15T05:11:21;3.75;;;1.13;;
48813;SDS011;34634;44.108;3.074;2023-04-15T05:13:47;1.42;;;0.70;;
48813;SDS011;34634;44.108;3.074;2023-04-15T05:16:13;2.35;;;0.75;;
48813;SDS011;34634;44.108;3.074;2023-04-15T05:18:40;3.30;;;0.75;;
48813;SDS011;34634;44.108;3.074;2023-04-15T05:21:06;1.48;;;0.70;;
48813;SDS011;34634;44.108;3.074;2023-04-15T05:23:32;1.63;;;0.60;;
48813;SDS011;34634;44.108;3.074;2023-04-15T05:25:59;2.10;;;0.60;;
48813;SDS011;34634;44.108;3.074;2023-04-15T05:28:25;1.30;;;0.50;;
48813;SDS011;34634;44.108;3.074;2023-04-15T05:30:51;2.25;;;0.40;;
48813;SDS011;34634;44.108;3.074;2023-04-15T05:33:18;1.20;;;0.60;;
48813;SDS011;34634;44.108;3.074;2023-04-15T05:35:44;0.20;;;0.20;;
48813;SDS011;34634;44.108;3.074;2023-04-15T05:38:11;2.78;;;0.50;;
48813;SDS011;34634;44.108;3.074;2023-04-15T05:40:37;0.22;;;0.20;;
48813;SDS011;34634;44.108;3.074;2023-04-15T05:43:03;1.45;;;0.40;;
48813;SDS011;34634;44.108;3.074;2023-04-15T05:45:30;10.30;;;3.03;;
48813;SDS011;34634;44.108;3.074;2023-04-15T05:47:56;2.00;;;0.70;;
48813;SDS011;34634;44.108;3.074;2023-04-15T05:50:23;15.18;;;6.93;;
48813;SDS011;34634;44.108;3.074;2023-04-15T05:52:49;16.13;;;7.75;;
48813;SDS011;34634;44.108;3.074;2023-04-15T05:55:15;5.72;;;2.38;;
48813;SDS011;34634;44.108;3.074;2023-04-15T05:57:42;4.00;;;1.80;;
48813;SDS011;34634;44.108;3.074;2023-04-15T06:00:08;2.63;;;0.75;;
48813;SDS011;34634;44.108;3.074;2023-04-15T06:02:35;6.00;;;0.80;;
48813;SDS011;34634;44.108;3.074;2023-04-15T06:05:01;4.50;;;0.60;;
48813;SDS011;34634;44.108;3.074;2023-04-15T06:07:28;6.57;;;1.33;;
48813;SDS011;34634;44.108;3.074;2023-04-15T06:09:54;4.97;;;1.00;;
48813;SDS011;34634;44.108;3.074;2023-04-15T06:12:20;2.35;;;0.75;;
48813;SDS011;34634;44.108;3.074;2023-04-15T06:14:46;5.30;;;1.30;;
48813;SDS011;34634;44.108;3.074;2023-04-15T06:17:13;8.50;;;1.80;;
48813;SDS011;34634;44.108;3.074;2023-04-15T06:19:39;8.38;;;2.78;;
48813;SDS011;34634;44.108;3.074;2023-04-15T06:22:06;8.40;;;3.50;;
48813;SDS011;34634;44.108;3.074;2023-04-15T06:24:32;4.22;;;1.73;;
48813;SDS011;34634;44.108;3.074;2023-04-15T06:26:58;4.93;;;0.90;;
48813;SDS011;34634;44.108;3.074;2023-04-15T06:29:26;5.40;;;1.48;;
48813;SDS011;34634;44.108;3.074;2023-04-15T06:31:52;13.48;;;5.43;;
48813;SDS011;34634;44.108;3.074;2023-04-15T06:34:20;6.50;;;1.10;;
48813;SDS011;34634;44.108;3.074;2023-04-15T06:36:47;6.30;;;2.40;;
48813;SDS011;34634;44.108;3.074;2023-04-15T06:39:13;5.80;;;2.00;;
48813;SDS011;34634;44.108;3.074;2023-04-15T06:41:39;3.22;;;1.15;;
48813;SDS011;34634;44.108;3.074;2023-04-15T06:44:06;8.05;;;1.70;;
48813;SDS011;34634;44.108;3.074;2023-04-15T06:46:32;6.75;;;1.60;;
48813;SDS011;34634;44.108;3.074;2023-04-15T06:48:58;9.05;;;2.10;;
48813;SDS011;34634;44.108;3.074;2023-04-15T06:51:25;9.02;;;3.20;;
48813;SDS011;34634;44.108;3.074;2023-04-15T06:53:51;11.70;;;3.70;;
48813;SDS011;34634;44.108;3.074;2023-04-15T06:56:18;4.82;;;1.42;;
48813;SDS011;34634;44.108;3.074;2023-04-15T06:58:44;5.13;;;1.63;;
48813;SDS011;34634;44.108;3.074;2023-04-15T07:01:12;15.88;;;6.18;;
48813;SDS011;34634;44.108;3.074;2023-04-15T07:03:39;11.45;;;4.15;;
48813;SDS011;34634;44.108;3.074;2023-04-15T07:06:06;4.68;;;1.55;;
48813;SDS011;34634;44.108;3.074;2023-04-15T07:08:33;6.53;;;1.90;;
48813;SDS011;34634;44.108;3.074;2023-04-15T07:11:00;13.60;;;3.47;;
48813;SDS011;34634;44.108;3.074;2023-04-15T07:13:26;9.55;;;2.50;;
48813;SDS011;34634;44.108;3.074;2023-04-15T07:15:53;9.30;;;1.92;;
48813;SDS011;34634;44.108;3.074;2023-04-15T07:18:19;10.77;;;3.25;;
48813;SDS011;34634;44.108;3.074;2023-04-15T07:20:45;11.75;;;3.17;;
48813;SDS011;34634;44.108;3.074;2023-04-15T07:23:12;5.97;;;1.52;;
48813;SDS011;34634;44.108;3.074;2023-04-15T07:25:38;7.38;;;1.40;;
48813;SDS011;34634;44.108;3.074;2023-04-15T07:28:04;5.40;;;1.60;;
48813;SDS011;34634;44.108;3.074;2023-04-15T07:30:31;13.82;;;3.55;;
48813;SDS011;34634;44.108;3.074;2023-04-15T07:32:57;9.98;;;2.25;;
48813;SDS011;34634;44.108;3.074;2023-04-15T07:35:24;5.57;;;1.95;;
48813;SDS011;34634;44.108;3.074;2023-04-15T07:37:50;8.18;;;2.17;;
48813;SDS011;34634;44.108;3.074;2023-04-15T07:40:17;8.50;;;3.03;;
48813;SDS011;34634;44.108;3.074;2023-04-15T07:42:44;9.93;;;3.85;;
48813;SDS011;34634;44.108;3.074;2023-04-15T07:45:10;11.45;;;2.67;;
48813;SDS011;34634;44.108;3.074;2023-04-15T07:47:37;10.18;;;2.72;;
48813;SDS011;34634;44.108;3.074;2023-04-15T07:50:04;7.63;;;3.13;;
48813;SDS011;34634;44.108;3.074;2023-04-15T07:52:31;8.82;;;3.15;;
48813;SDS011;34634;44.108;3.074;2023-04-15T07:55:06;6.15;;;2.15;;
48813;SDS011;34634;44.108;3.074;2023-04-15T07:57:33;8.18;;;2.80;;
48813;SDS011;34634;44.108;3.074;2023-04-15T08:00:00;5.72;;;1.70;;
48813;SDS011;34634;44.108;3.074;2023-04-15T08:02:28;3.45;;;1.88;;
48813;SDS011;34634;44.108;3.074;2023-04-15T08:04:54;5.80;;;1.70;;
48813;SDS011;34634;44.108;3.074;2023-04-15T08:07:22;6.82;;;2.05;;
48813;SDS011;34634;44.108;3.074;2023-04-15T08:09:48;4.85;;;1.27;;
48813;SDS011;34634;44.108;3.074;2023-04-15T08:12:15;7.07;;;1.42;;
48813;SDS011;34634;44.108;3.074;2023-04-15T08:14:41;6.75;;;2.15;;
48813;SDS011;34634;44.108;3.074;2023-04-15T08:17:07;6.70;;;1.48;;
48813;SDS011;34634;44.108;3.074;2023-04-15T08:19:34;7.70;;;2.13;;
48813;SDS011;34634;44.108;3.074;2023-04-15T08:22:00;6.13;;;2.45;;
48813;SDS011;34634;44.108;3.074;2023-04-15T08:24:27;6.78;;;1.90;;
48813;SDS011;34634;44.108;3.074;2023-04-15T08:26:53;4.78;;;1.67;;
48813;SDS011;34634;44.108;3.074;2023-04-15T08:29:19;5.88;;;1.55;;
48813;SDS011;34634;44.108;3.074;2023-04-15T08:31:46;4.35;;;1.52;;
48813;SDS011;34634;44.108;3.074;2023-04-15T08:34:12;6.30;;;2.15;;
48813;SDS011;34634;44.108;3.074;2023-04-15T08:36:39;3.25;;;1.45;;
48813;SDS011;34634;44.108;3.074;2023-04-15T08:39:05;5.30;;;1.77;;
48813;SDS011;34634;44.108;3.074;2023-04-15T08:41:45;5.28;;;2.08;;
48813;SDS011;34634;44.108;3.074;2023-04-15T08:44:12;5.05;;;2.22;;
48813;SDS011;34634;44.108;3.074;2023-04-15T08:46:40;5.70;;;1.90;;
48813;SDS011;34634;44.108;3.074;2023-04-15T08:49:10;5.15;;;1.95;;
48813;SDS011;34634;44.108;3.074;2023-04-15T08:51:40;6.13;;;1.33;;
48813;SDS011;34634;44.108;3.074;2023-04-15T08:54:07;9.52;;;1.50;;
48813;SDS011;34634;44.108;3.074;2023-04-15T08:56:34;9.93;;;3.00;;
48813;SDS011;34634;44.108;3.074;2023-04-15T08:59:01;5.72;;;1.70;;
48813;SDS011;34634;44.108;3.074;2023-04-15T09:01:28;10.00;;;2.80;;
48813;SDS011;34634;44.108;3.074;2023-04-15T09:03:55;5.82;;;1.95;;
48813;SDS011;34634;44.108;3.074;2023-04-15T09:06:22;7.97;;;2.53;;
48813;SDS011;34634;44.108;3.074;2023-04-15T09:08:48;10.95;;;3.88;;
48813;SDS011;34634;44.108;3.074;2023-04-15T09:11:16;6.80;;;2.80;;
48813;SDS011;34634;44.108;3.074;2023-04-15T09:13:42;7.32;;;2.10;;
48813;SDS011;34634;44.108;3.074;2023-04-15T09:16:09;7.40;;;2.20;;
48813;SDS011;34634;44.108;3.074;2023-04-15T09:18:35;4.93;;;1.80;;
48813;SDS011;34634;44.108;3.074;2023-04-15T09:23:36;3.63;;;1.30;;
48813;SDS011;34634;44.108;3.074;2023-04-15T09:26:03;6.22;;;1.83;;
48813;SDS011;34634;44.108;3.074;2023-04-15T09:28:29;5.72;;;1.20;;
48813;SDS011;34634;44.108;3.074;2023-04-15T09:30:56;4.88;;;1.27;;
48813;SDS011;34634;44.108;3.074;2023-04-15T09:33:23;4.45;;;1.27;;
48813;SDS011;34634;44.108;3.074;2023-04-15T09:36:03;4.25;;;1.33;;
48813;SDS011;34634;44.108;3.074;2023-04-15T09:38:31;3.67;;;0.98;;
48813;SDS011;34634;44.108;3.074;2023-04-15T09:40:57;3.30;;;0.75;;
48813;SDS011;34634;44.108;3.074;2023-04-15T09:43:37;2.08;;;0.65;;
48813;SDS011;34634;44.108;3.074;2023-04-15T09:46:04;5.97;;;1.23;;
48813;SDS011;34634;44.108;3.074;2023-04-15T09:48:30;2.08;;;0.93;;
48813;SDS011;34634;44.108;3.074;2023-04-15T09:50:57;2.10;;;0.70;;
48813;SDS011;34634;44.108;3.074;2023-04-15T09:53:24;3.67;;;0.75;;
48813;SDS011;34634;44.108;3.074;2023-04-15T09:58:24;2.78;;;0.90;;
48813;SDS011;34634;44.108;3.074;2023-04-15T10:00:51;4.45;;;0.95;;
48813;SDS011;34634;44.108;3.074;2023-04-15T10:03:19;2.20;;;0.82;;
48813;SDS011;34634;44.108;3.074;2023-04-15T10:05:46;4.22;;;0.93;;
48813;SDS011;34634;44.108;3.074;2023-04-15T10:08:14;1.67;;;0.90;;
48813;SDS011;34634;44.108;3.074;2023-04-15T10:10:41;4.43;;;1.10;;
48813;SDS011;34634;44.108;3.074;2023-04-15T10:13:07;2.72;;;0.70;;
48813;SDS011;34634;44.108;3.074;2023-04-15T10:15:35;2.20;;;1.00;;
48813;SDS011;34634;44.108;3.074;2023-04-15T10:18:01;2.35;;;1.20;;
48813;SDS011;34634;44.108;3.074;2023-04-15T10:20:30;2.03;;;0.70;;
48813;SDS011;34634;44.108;3.074;2023-04-15T10:22:56;7.65;;;1.30;;
48813;SDS011;34634;44.108;3.074;2023-04-15T10:25:23;4.00;;;0.98;;
48813;SDS011;34634;44.108;3.074;2023-04-15T10:27:51;3.13;;;1.02;;
48813;SDS011;34634;44.108;3.074;2023-04-15T10:30:17;5.43;;;1.30;;
48813;SDS011;34634;44.108;3.074;2023-04-15T10:32:44;4.43;;;1.20;;
48813;SDS011;34634;44.108;3.074;2023-04-15T10:35:10;4.97;;;1.17;;
48813;SDS011;34634;44.108;3.074;2023-04-15T10:37:37;3.83;;;1.10;;
48813;SDS011;34634;44.108;3.074;2023-04-15T10:42:48;2.05;;;0.82;;
48813;SDS011;34634;44.108;3.074;2023-04-15T10:45:15;1.92;;;0.70;;
48813;SDS011;34634;44.108;3.074;2023-04-15T10:47:42;3.65;;;1.02;;
48813;SDS011;34634;44.108;3.074;2023-04-15T10:50:08;2.40;;;1.20;;
48813;SDS011;34634;44.108;3.074;2023-04-15T10:52:36;4.25;;;1.25;;
48813;SDS011;34634;44.108;3.074;2023-04-15T10:57:34;2.08;;;0.88;;
48813;SDS011;34634;44.108;3.074;2023-04-15T11:00:09;2.53;;;0.65;;
48813;SDS011;34634;44.108;3.074;2023-04-15T11:02:40;2.85;;;0.93;;
48813;SDS011;34634;44.108;3.074;2023-04-15T11:05:07;2.00;;;0.93;;
48813;SDS011;34634;44.108;3.074;2023-04-15T11:10:00;3.40;;;0.80;;
48813;SDS011;34634;44.108;3.074;2023-04-15T11:12:33;3.45;;;1.20;;
48813;SDS011;34634;44.108;3.074;2023-04-15T11:17:46;5.05;;;1.15;;
48813;SDS011;34634;44.108;3.074;2023-04-15T11:20:14;2.50;;;0.77;;
48813;SDS011;34634;44.108;3.074;2023-04-15T11:22:54;2.45;;;1.20;;
48813;SDS011;34634;44.108;3.074;2023-04-15T11:25:28;4.63;;;1.02;;
48813;SDS011;34634;44.108;3.074;2023-04-15T11:27:55;2.58;;;0.90;;
48813;SDS011;34634;44.108;3.074;2023-04-15T11:30:22;2.13;;;0.77;;
48813;SDS011;34634;44.108;3.074;2023-04-15T11:32:54;4.40;;;1.42;;
48813;SDS011;34634;44.108;3.074;2023-04-15T11:35:20;2.95;;;1.20;;
48813;SDS011;34634;44.108;3.074;2023-04-15T11:37:47;3.55;;;0.80;;
48813;SDS011;34634;44.108;3.074;2023-04-15T11:40:13;1.58;;;0.90;;
48813;SDS011;34634;44.108;3.074;2023-04-15T11:42:43;3.17;;;0.80;;
48813;SDS011;34634;44.108;3.074;2023-04-15T11:45:11;3.28;;;0.98;;
48813;SDS011;34634;44.108;3.074;2023-04-15T11:47:38;2.67;;;0.95;;
48813;SDS011;34634;44.108;3.074;2023-04-15T11:53:02;2.72;;;1.30;;
48813;SDS011;34634;44.108;3.074;2023-04-15T11:55:27;2.75;;;0.70;;
48813;SDS011;34634;44.108;3.074;2023-04-15T11:58:10;2.17;;;0.93;;
48813;SDS011;34634;44.108;3.074;2023-04-15T12:00:38;2.85;;;0.90;;
48813;SDS011;34634;44.108;3.074;2023-04-15T12:03:11;2.83;;;0.85;;
48813;SDS011;34634;44.108;3.074;2023-04-15T12:06:38;3.58;;;1.27;;
48813;SDS011;34634;44.108;3.074;2023-04-15T12:11:20;2.58;;;1.08;;
48813;SDS011;34634;44.108;3.074;2023-04-15T12:13:56;2.38;;;1.10;;
48813;SDS011;34634;44.108;3.074;2023-04-15T12:16:23;1.95;;;1.10;;
48813;SDS011;34634;44.108;3.074;2023-04-15T12:18:53;1.65;;;0.90;;
48813;SDS011;34634;44.108;3.074;2023-04-15T12:21:21;2.05;;;0.88;;
48813;SDS011;34634;44.108;3.074;2023-04-15T12:26:15;3.28;;;1.23;;
48813;SDS011;34634;44.108;3.074;2023-04-15T12:28:42;2.28;;;1.08;;
48813;SDS011;34634;44.108;3.074;2023-04-15T12:31:11;2.17;;;1.10;;
48813;SDS011;34634;44.108;3.074;2023-04-15T12:33:37;3.45;;;1.00;;
48813;SDS011;34634;44.108;3.074;2023-04-15T12:36:04;3.53;;;1.40;;
48813;SDS011;34634;44.108;3.074;2023-04-15T12:38:31;2.47;;;1.30;;
48813;SDS011;34634;44.108;3.074;2023-04-15T12:40:57;2.35;;;1.05;;
48813;SDS011;34634;44.108;3.074;2023-04-15T12:43:24;3.95;;;1.13;;
48813;SDS011;34634;44.108;3.074;2023-04-15T12:45:50;2.70;;;1.00;;
48813;SDS011;34634;44.108;3.074;2023-04-15T12:48:16;2.67;;;1.15;;
48813;SDS011;34634;44.108;3.074;2023-04-15T12:50:43;1.08;;;0.77;;
48813;SDS011;34634;44.108;3.074;2023-04-15T12:53:09;4.75;;;1.25;;
48813;SDS011;34634;44.108;3.074;2023-04-15T12:55:35;8.90;;;3.63;;
48813;SDS011;34634;44.108;3.074;2023-04-15T12:58:01;2.53;;;1.05;;
48813;SDS011;34634;44.108;3.074;2023-04-15T13:00:28;2.75;;;0.90;;
48813;SDS011;34634;44.108;3.074;2023-04-15T13:02:54;6.28;;;1.80;;
48813;SDS011;34634;44.108;3.074;2023-04-15T13:05:21;2.78;;;1.10;;
48813;SDS011;34634;44.108;3.074;2023-04-15T13:07:48;1.85;;;0.90;;
48813;SDS011;34634;44.108;3.074;2023-04-15T13:10:14;4.65;;;0.90;;
48813;SDS011;34634;44.108;3.074;2023-04-15T13:12:40;2.30;;;1.05;;
48813;SDS011;34634;44.108;3.074;2023-04-15T13:15:07;1.88;;;1.00;;
48813;SDS011;34634;44.108;3.074;2023-04-15T13:17:35;2.08;;;0.85;;
48813;SDS011;34634;44.108;3.074;2023-04-15T13:20:01;8.18;;;1.30;;
48813;SDS011;34634;44.108;3.074;2023-04-15T13:22:28;2.65;;;0.85;;
48813;SDS011;34634;44.108;3.074;2023-04-15T13:24:54;3.83;;;1.20;;
48813;SDS011;34634;44.108;3.074;2023-04-15T13:27:21;3.28;;;1.20;;
48813;SDS011;34634;44.108;3.074;2023-04-15T13:29:47;1.55;;;0.60;;
48813;SDS011;34634;44.108;3.074;2023-04-15T13:32:13;2.50;;;0.80;;
48813;SDS011;34634;44.108;3.074;2023-04-15T13:34:40;3.45;;;1.20;;
48813;SDS011;34634;44.108;3.074;2023-04-15T13:37:07;3.13;;;0.80;;
48813;SDS011;34634;44.108;3.074;2023-04-15T13:39:34;2.67;;;0.90;;
48813;SDS011;34634;44.108;3.074;2023-04-15T13:42:00;1.95;;;0.85;;
48813;SDS011;34634;44.108;3.074;2023-04-15T13:44:27;3.13;;;0.95;;
48813;SDS011;34634;44.108;3.074;2023-04-15T13:46:53;3.42;;;1.10;;
48813;SDS011;34634;44.108;3.074;2023-04-15T13:49:20;2.05;;;1.10;;
48813;SDS011;34634;44.108;3.074;2023-04-15T13:51:46;1.58;;;0.70;;
48813;SDS011;34634;44.108;3.074;2023-04-15T13:54:12;1.60;;;0.80;;
48813;SDS011;34634;44.108;3.074;2023-04-15T13:56:39;2.90;;;1.00;;
48813;SDS011;34634;44.108;3.074;2023-04-15T13:59:05;2.47;;;1.02;;
48813;SDS011;34634;44.108;3.074;2023-04-15T14:01:33;2.30;;;0.77;;
48813;SDS011;34634;44.108;3.074;2023-04-15T14:03:59;4.18;;;0.80;;
48813;SDS011;34634;44.108;3.074;2023-04-15T14:06:26;5.25;;;0.93;;
48813;SDS011;34634;44.108;3.074;2023-04-15T14:08:53;7.00;;;1.17;;
48813;SDS011;34634;44.108;3.074;2023-04-15T14:11:20;2.95;;;0.95;;
48813;SDS011;34634;44.108;3.074;2023-04-15T14:13:46;2.33;;;1.05;;
48813;SDS011;34634;44.108;3.074;2023-04-15T14:16:12;2.50;;;0.82;;
48813;SDS011;34634;44.108;3.074;2023-04-15T14:18:39;2.92;;;1.20;;
48813;SDS011;34634;44.108;3.074;2023-04-15T14:21:05;2.97;;;0.90;;
48813;SDS011;34634;44.108;3.074;2023-04-15T14:23:31;6.40;;;1.13;;
48813;SDS011;34634;44.108;3.074;2023-04-15T14:25:58;4.45;;;1.05;;
48813;SDS011;34634;44.108;3.074;2023-04-15T14:28:24;3.03;;;0.70;;
48813;SDS011;34634;44.108;3.074;2023-04-15T14:30:50;2.08;;;0.90;;
48813;SDS011;34634;44.108;3.074;2023-04-15T14:33:18;6.38;;;0.90;;
48813;SDS011;34634;44.108;3.074;2023-04-15T14:35:44;2.35;;;1.00;;
48813;SDS011;34634;44.108;3.074;2023-04-15T14:38:10;2.80;;;0.82;;
48813;SDS011;34634;44.108;3.074;2023-04-15T14:40:37;2.47;;;0.90;;
48813;SDS011;34634;44.108;3.074;2023-04-15T14:43:03;3.42;;;0.90;;
48813;SDS011;34634;44.108;3.074;2023-04-15T14:45:29;2.95;;;1.05;;
48813;SDS011;34634;44.108;3.074;2023-04-15T14:47:56;2.30;;;0.80;;
48813;SDS011;34634;44.108;3.074;2023-04-15T14:50:22;1.98;;;0.70;;
48813;SDS011;34634;44.108;3.074;2023-04-15T14:52:48;3.83;;;0.85;;
48813;SDS011;34634;44.108;3.074;2023-04-15T14:55:15;2.30;;;0.73;;
48813;SDS011;34634;44.108;3.074;2023-04-15T14:57:41;7.20;;;0.90;;
48813;SDS011;34634;44.108;3.074;2023-04-15T15:00:08;2.42;;;0.88;;
48813;SDS011;34634;44.108;3.074;2023-04-15T15:02:37;1.83;;;0.63;;
48813;SDS011;34634;44.108;3.074;2023-04-15T15:05:04;3.65;;;0.70;;
48813;SDS011;34634;44.108;3.074;2023-04-15T15:07:30;3.28;;;1.05;;
48813;SDS011;34634;44.108;3.074;2023-04-15T15:09:56;3.58;;;1.05;;
48813;SDS011;34634;44.108;3.074;2023-04-15T15:12:23;2.42;;;0.90;;